Time;durP1;ratioP1;P1;durP2;ratioP2;P2;SDS_P1;SDS_P2;PMS_P1;PMS_P2;Temp;Humidity;BMP_temperature;BMP_pressure;BME280_temperature;BME280_humidity;BME280_pressure;Samples;Min_cycle;Max_cycle;Signal;HPM_P1;HPM_P2
2021/10/20 00:02:13;;;;;;;9.63;8.78;;;;;;;13.16;75.71;100708.30;1625033;87;21125;-72
2021/10/20 00:04:39;;;;;;;10.08;9.08;;;;;;;13.14;75.83;100702.70;1614324;86;26490;-72
2021/10/20 00:07:05;;;;;;;11.27;9.87;;;;;;;13.11;75.86;100702.33;1620614;87;20992;-72
2021/10/20 00:09:31;;;;;;;15.83;9.78;;;;;;;13.09;75.85;100710.59;1616954;88;21081;-72
2021/10/20 00:11:57;;;;;;;9.77;8.77;;;;;;;13.08;75.96;100716.69;1604636;88;21393;-72
2021/10/20 00:14:25;;;;;;;9.60;8.25;;;;;;;13.06;75.98;100709.38;1608385;88;21101;-72
2021/10/20 00:16:51;;;;;;;11.37;9.67;;;;;;;13.05;76.05;100713.31;1613854;87;20963;-72
2021/10/20 00:19:17;;;;;;;9.88;8.88;;;;;;;13.05;76.10;100704.22;1614648;88;21097;-71
2021/10/20 00:21:47;;;;;;;9.70;8.25;;;;;;;13.03;76.08;100690.43;1616372;88;20971;-72
2021/10/20 00:24:14;;;;;;;11.28;8.55;;;;;;;13.03;76.18;100687.83;1610622;88;21105;-72
2021/10/20 00:26:40;;;;;;;9.03;8.13;;;;;;;13.03;76.20;100697.77;1603753;87;21610;-72
2021/10/20 00:29:06;;;;;;;9.30;8.33;;;;;;;13.04;76.17;100685.64;1601550;88;21139;-72
2021/10/20 00:31:32;;;;;;;9.03;8.20;;;;;;;13.06;76.22;100678.67;1605581;88;21046;-72
2021/10/20 00:33:58;;;;;;;10.47;8.73;;;;;;;13.09;76.28;100681.19;1634199;86;21411;-72
2021/10/20 00:36:24;;;;;;;9.13;8.23;;;;;;;13.11;76.27;100676.37;1603605;88;21598;-72
2021/10/20 00:38:50;;;;;;;16.67;8.20;;;;;;;13.14;76.32;100676.73;1609881;88;21170;-72
2021/10/20 00:41:16;;;;;;;8.25;7.37;;;;;;;13.16;76.27;100671.95;1616487;88;21141;-72
2021/10/20 00:43:42;;;;;;;8.33;7.20;;;;;;;13.17;76.36;100671.05;1611111;88;20996;-72
2021/10/20 00:46:09;;;;;;;7.67;6.85;;;;;;;13.21;76.40;100667.93;1616487;88;21209;-72
2021/10/20 00:48:35;;;;;;;8.63;7.83;;;;;;;13.22;76.43;100669.63;1616642;87;21673;-72
2021/10/20 00:51:03;;;;;;;8.38;7.50;;;;;;;13.21;76.48;100662.30;1616387;88;21070;-72
2021/10/20 00:53:29;;;;;;;15.20;8.28;;;;;;;13.21;76.57;100662.73;1610555;88;21078;-72
2021/10/20 00:55:55;;;;;;;10.73;8.10;;;;;;;13.20;76.64;100663.19;1602587;88;21340;-72
2021/10/20 00:58:22;;;;;;;9.80;7.85;;;;;;;13.18;76.69;100654.58;1616587;87;21113;-72
2021/10/20 01:00:49;;;;;;;12.10;8.48;;;;;;;13.18;76.76;100662.38;1612559;87;21158;-72
2021/10/20 01:03:16;;;;;;;9.30;8.08;;;;;;;13.18;76.87;100662.38;1615568;87;21078;-72
2021/10/20 01:05:42;;;;;;;9.43;8.63;;;;;;;13.17;76.85;100653.33;1644898;87;21117;-72
2021/10/20 01:08:08;;;;;;;9.33;8.47;;;;;;;13.14;76.92;100645.13;1627355;87;21102;-72
2021/10/20 01:10:35;;;;;;;8.43;7.40;;;;;;;13.13;76.91;100642.13;1610786;87;20935;-72
2021/10/20 01:13:01;;;;;;;12.50;9.00;;;;;;;13.09;77.01;100644.40;1617022;87;21094;-72
2021/10/20 01:15:28;;;;;;;9.43;7.80;;;;;;;13.08;77.05;100641.40;1633255;87;20923;-72
2021/10/20 01:17:54;;;;;;;8.63;7.83;;;;;;;13.05;77.08;100632.39;1610799;87;21003;-72
2021/10/20 01:20:25;;;;;;;9.70;8.48;;;;;;;13.03;77.12;100622.48;1629284;87;20943;-72
2021/10/20 01:22:52;;;;;;;10.15;7.67;;;;;;;13.00;77.21;100627.76;1599751;87;20908;-72
2021/10/20 01:25:18;;;;;;;13.90;8.53;;;;;;;12.98;77.24;100615.30;1628312;86;20929;-72
2021/10/20 01:27:44;;;;;;;9.63;8.57;;;;;;;12.96;77.33;100614.48;1633705;87;21045;-72
2021/10/20 01:30:11;;;;;;;9.47;8.53;;;;;;;12.95;77.37;100619.27;1623107;86;21150;-72
2021/10/20 01:32:38;;;;;;;8.40;7.62;;;;;;;12.96;77.51;100627.47;1646639;86;21085;-72
2021/10/20 01:35:05;;;;;;;10.60;7.62;;;;;;;12.96;77.47;100622.27;1625033;87;25210;-72
2021/10/20 01:37:32;;;;;;;12.35;8.33;;;;;;;12.96;77.54;100613.64;1620335;88;20962;-72
2021/10/20 01:39:58;;;;;;;9.13;8.23;;;;;;;12.96;77.55;100623.57;1607628;88;20947;-72
2021/10/20 01:42:26;;;;;;;9.30;8.35;;;;;;;12.96;77.67;100620.97;1624221;88;20949;-72
2021/10/20 01:44:52;;;;;;;9.35;7.75;;;;;;;12.97;77.71;100621.38;1618024;86;22573;-72
2021/10/20 01:47:24;;;;;;;10.18;7.78;;;;;;;12.97;77.71;100622.68;1614341;88;20947;-72
2021/10/20 01:49:51;;;;;;;9.63;8.63;;;;;;;12.98;77.81;100615.30;1614940;86;20963;-72
2021/10/20 01:52:17;;;;;;;11.40;8.53;;;;;;;12.99;77.88;100613.55;1609423;88;21106;-72
2021/10/20 01:54:44;;;;;;;9.30;8.00;;;;;;;12.98;77.93;100608.81;1615122;88;21133;-72
2021/10/20 01:57:10;;;;;;;10.95;7.50;;;;;;;12.99;77.99;100610.52;1603992;88;21146;-72
2021/10/20 01:59:37;;;;;;;8.98;8.08;;;;;;;12.99;78.02;100613.11;1631603;86;21017;-72
2021/10/20 02:02:03;;;;;;;12.47;8.57;;;;;;;12.99;77.99;100602.73;1640091;86;21023;-72
2021/10/20 02:04:29;;;;;;;9.30;8.33;;;;;;;12.99;78.05;100597.54;1663825;85;21049;-72
2021/10/20 02:06:55;;;;;;;10.00;9.10;;;;;;;12.97;78.09;100598.02;1668098;85;21072;-72
2021/10/20 02:09:21;;;;;;;10.70;9.13;;;;;;;12.96;78.16;100601.95;1653242;84;21339;-72
2021/10/20 02:11:47;;;;;;;13.67;9.77;;;;;;;12.95;78.16;100601.55;1661231;85;21116;-72
2021/10/20 02:14:17;;;;;;;12.68;8.68;;;;;;;12.94;78.30;100600.70;1674592;85;21017;-72
2021/10/20 02:16:43;;;;;;;11.23;10.03;;;;;;;12.92;78.28;100592.95;1665470;85;21072;-72
2021/10/20 02:19:08;;;;;;;15.13;11.43;;;;;;;12.93;78.35;100588.61;1668017;85;20921;-72
2021/10/20 02:21:36;;;;;;;11.67;10.07;;;;;;;12.91;78.48;100576.97;1669959;84;21029;-72
2021/10/20 02:24:02;;;;;;;17.80;10.75;;;;;;;12.91;78.54;100586.05;1680708;84;21492;-72
2021/10/20 02:26:28;;;;;;;14.58;10.93;;;;;;;12.91;78.50;100578.27;1656505;85;21117;-72
2021/10/20 02:28:54;;;;;;;13.87;11.67;;;;;;;12.91;78.60;100580.86;1674477;85;21400;-72
2021/10/20 02:31:20;;;;;;;12.93;11.70;;;;;;;12.92;78.67;100577.83;1670007;85;21073;-72
2021/10/20 02:33:47;;;;;;;15.18;11.38;;;;;;;12.92;78.65;100578.67;1683717;84;21040;-72
2021/10/20 02:36:13;;;;;;;12.03;10.83;;;;;;;12.92;78.73;100573.48;1693900;84;20862;-72
2021/10/20 02:38:39;;;;;;;12.65;11.45;;;;;;;12.94;78.83;100574.74;1674512;84;21019;-72
2021/10/20 02:41:07;;;;;;;12.78;11.00;;;;;;;12.93;78.88;100572.59;1669295;85;21030;-72
2021/10/20 02:43:36;;;;;;;14.37;11.80;;;;;;;12.97;78.93;100571.22;1672314;85;21420;-72
2021/10/20 02:46:02;;;;;;;15.85;11.50;;;;;;;12.97;78.92;100559.09;1664767;84;21081;-72
2021/10/20 02:48:27;;;;;;;;;;;;;;;12.99;78.99;100566.84;1671100;84;22204;-72
2021/10/20 02:50:54;;;;;;;10.67;9.53;;;;;;;13.01;79.35;100566.31;1673789;84;20190;-72
2021/10/20 02:53:20;;;;;;;16.40;11.43;;;;;;;13.04;79.24;100565.79;1655324;85;21053;-72
2021/10/20 02:55:45;;;;;;;11.90;9.63;;;;;;;13.04;79.24;100565.79;1666224;84;21403;-72
2021/10/20 02:58:11;;;;;;;11.73;10.37;;;;;;;13.05;79.14;100564.89;1664880;84;20978;-72
2021/10/20 03:00:38;;;;;;;14.33;10.20;;;;;;;13.07;79.25;100571.34;1674653;84;20993;-72
2021/10/20 03:03:04;;;;;;;13.67;11.23;;;;;;;13.08;79.31;100571.30;1673120;84;20930;-72
2021/10/20 03:05:30;;;;;;;11.40;10.20;;;;;;;13.09;79.31;100562.63;1678256;83;21133;-72
2021/10/20 03:07:58;;;;;;;12.18;10.08;;;;;;;13.10;79.41;100561.73;1654866;85;20989;-72
2021/10/20 03:10:24;;;;;;;12.93;10.90;;;;;;;13.11;79.44;100566.03;1666389;84;21021;-72
2021/10/20 03:12:50;;;;;;;12.13;10.95;;;;;;;13.12;79.43;100561.24;1681845;84;21087;-72
2021/10/20 03:15:28;;;;;;;14.28;11.15;;;;;;;13.14;79.51;100556.01;1665093;84;20965;-72
2021/10/20 03:17:54;;;;;;;11.33;10.33;;;;;;;13.16;79.55;100553.81;1674722;85;21044;-72
2021/10/20 03:20:20;;;;;;;12.60;11.07;;;;;;;13.17;79.61;100546.88;1672544;84;20930;-72
2021/10/20 03:22:46;;;;;;;15.32;12.15;;;;;;;13.18;79.70;100537.74;1675358;84;20997;-72
2021/10/20 03:25:13;;;;;;;14.20;12.77;;;;;;;13.19;79.74;100537.30;1661652;84;21043;-72
2021/10/20 03:27:46;;;;;;;15.98;13.60;;;;;;;13.21;79.71;100531.61;1658560;84;21261;-72
2021/10/20 03:30:15;;;;;;;14.20;12.55;;;;;;;13.23;79.70;100529.83;1672307;84;22179;-72
2021/10/20 03:32:41;;;;;;;13.30;11.93;;;;;;;13.23;79.77;100530.67;1659412;84;21634;-72
2021/10/20 03:35:09;;;;;;;14.40;12.60;;;;;;;13.24;79.85;100525.89;1668748;84;21152;-72
2021/10/20 03:37:36;;;;;;;14.25;12.20;;;;;;;13.27;79.91;100521.50;1669396;85;21048;-72
2021/10/20 03:40:04;;;;;;;16.30;13.18;;;;;;;13.28;79.84;100520.61;1677530;84;20996;-72
2021/10/20 03:42:31;;;;;;;14.40;12.88;;;;;;;13.30;79.92;100522.72;1675511;84;21478;-72
2021/10/20 03:44:58;;;;;;;15.30;12.65;;;;;;;13.31;80.02;100520.52;1679234;84;21540;-72
2021/10/20 03:47:25;;;;;;;;;;;;;;;13.31;80.04;100520.52;1670711;84;21068;-72
2021/10/20 03:49:54;;;;;;;14.90;11.85;;;;;;;13.33;80.45;100525.22;1669281;85;20711;-72
2021/10/20 03:52:20;;;;;;;16.62;12.73;;;;;;;13.34;80.18;100525.63;1672064;84;21120;-72
2021/10/20 03:54:47;;;;;;;13.10;11.68;;;;;;;13.35;80.21;100524.28;1673748;84;21001;-72
2021/10/20 03:57:14;;;;;;;14.87;11.45;;;;;;;13.37;80.12;100525.54;1671218;84;22120;-71
2021/10/20 03:59:43;;;;;;;14.55;13.08;;;;;;;13.39;80.25;100515.95;1662355;84;21117;-71
2021/10/20 04:02:11;;;;;;;13.80;11.85;;;;;;;13.40;80.31;100517.21;1665021;84;22224;-71
2021/10/20 04:04:38;;;;;;;17.12;13.35;;;;;;;13.41;80.33;100511.13;1667787;84;21512;-71
2021/10/20 04:07:04;;;;;;;16.60;13.57;;;;;;;13.44;80.36;100506.28;1662613;84;22220;-71
2021/10/20 04:09:31;;;;;;;14.13;12.47;;;;;;;13.45;80.41;100506.23;1660466;84;21491;-71
2021/10/20 04:11:57;;;;;;;16.73;13.10;;;;;;;13.46;80.39;100507.09;1664906;85;22101;-71
2021/10/20 04:14:23;;;;;;;15.60;13.83;;;;;;;13.46;80.47;100498.85;1660493;84;21516;-71
2021/10/20 04:16:49;;;;;;;16.47;13.33;;;;;;;13.47;80.48;100499.25;1659699;84;21733;-71
2021/10/20 04:19:15;;;;;;;18.83;14.77;;;;;;;13.49;80.53;100497.91;1648755;85;21528;-71
2021/10/20 04:21:41;;;;;;;18.10;14.17;;;;;;;13.49;80.54;100497.91;1664273;84;20949;-71
2021/10/20 04:24:07;;;;;;;18.10;13.75;;;;;;;13.49;80.62;100500.06;1670417;84;21387;-71
2021/10/20 04:26:33;;;;;;;17.43;14.43;;;;;;;13.49;80.66;100497.46;1669416;85;21416;-71
2021/10/20 04:28:59;;;;;;;19.13;14.77;;;;;;;13.49;80.64;100485.77;1670867;85;22528;-71
2021/10/20 04:31:26;;;;;;;21.13;15.30;;;;;;;13.50;80.73;100488.77;1667382;84;21517;-71
2021/10/20 04:33:52;;;;;;;21.00;17.57;;;;;;;13.50;80.69;100482.28;1673071;84;21475;-71
2021/10/20 04:36:17;;;;;;;19.57;16.63;;;;;;;13.49;80.72;100481.88;1657801;84;20989;-71
2021/10/20 04:38:43;;;;;;;20.10;17.50;;;;;;;13.48;80.79;100476.28;1675648;84;21639;-71
2021/10/20 04:41:09;;;;;;;21.47;18.10;;;;;;;13.47;80.86;100481.07;1655356;84;20915;-71
2021/10/20 04:43:36;;;;;;;20.88;15.95;;;;;;;13.46;80.82;100483.27;1655606;85;21057;-71
2021/10/20 04:46:09;;;;;;;16.70;14.43;;;;;;;13.45;80.86;100477.67;1650647;85;21525;-71
2021/10/20 04:48:35;;;;;;;19.57;14.30;;;;;;;13.42;80.88;100470.41;1661402;85;21074;-71
2021/10/20 04:51:01;;;;;;;14.40;12.87;;;;;;;13.41;80.93;100466.11;1672799;84;20960;-71
2021/10/20 04:53:27;;;;;;;15.50;13.70;;;;;;;13.40;80.96;100464.41;1655839;85;21628;-71
2021/10/20 04:55:53;;;;;;;14.33;12.33;;;;;;;13.37;81.00;100470.55;1664517;85;21662;-71
2021/10/20 04:58:19;;;;;;;20.23;12.90;;;;;;;13.34;81.03;100464.59;1653710;84;22204;-71
2021/10/20 05:00:45;;;;;;;17.47;13.23;;;;;;;13.34;81.08;100464.59;1669384;84;22415;-71
2021/10/20 05:03:13;;;;;;;19.00;13.65;;;;;;;13.31;81.04;100455.59;1672115;85;21041;-71
2021/10/20 05:05:39;;;;;;;18.33;14.07;;;;;;;13.28;81.06;100455.69;1622269;87;21765;-71
2021/10/20 05:08:05;;;;;;;15.53;13.00;;;;;;;13.25;81.15;100451.44;1666050;85;20975;-71
2021/10/20 05:10:32;;;;;;;15.07;13.43;;;;;;;13.22;81.08;100440.69;1666460;85;21248;-71
2021/10/20 05:12:58;;;;;;;14.85;13.35;;;;;;;13.18;81.16;100442.97;1661671;85;21489;-71
2021/10/20 05:15:25;;;;;;;16.07;12.97;;;;;;;13.16;81.17;100445.21;1650057;85;22239;-71
2021/10/20 05:17:51;;;;;;;18.50;13.25;;;;;;;13.11;81.20;100437.52;1668207;84;20879;-70
2021/10/20 05:20:18;;;;;;;14.57;13.07;;;;;;;13.07;81.22;100435.06;1675853;84;21411;-70
2021/10/20 05:22:45;;;;;;;16.48;12.73;;;;;;;13.04;81.28;100432.11;1676440;85;20886;-70
2021/10/20 05:25:13;;;;;;;21.90;13.00;;;;;;;13.01;81.30;100429.59;1676124;85;22253;-70
2021/10/20 05:27:42;;;;;;;17.30;12.82;;;;;;;12.99;81.37;100418.89;1675384;85;20961;-70
2021/10/20 05:30:10;;;;;;;15.05;12.80;;;;;;;12.95;81.38;100416.83;1674918;84;21336;-70
2021/10/20 05:32:36;;;;;;;17.55;13.58;;;;;;;12.91;81.39;100417.36;1667640;85;21561;-70
2021/10/20 05:35:03;;;;;;;20.08;13.60;;;;;;;12.88;81.42;100408.81;1676286;84;22249;-70
2021/10/20 05:37:29;;;;;;;14.00;12.60;;;;;;;12.87;81.50;100409.71;1665715;84;21626;-70
2021/10/20 05:40:01;;;;;;;17.07;12.65;;;;;;;12.84;81.49;100410.64;1670159;84;20960;-71
2021/10/20 05:42:27;;;;;;;14.80;12.87;;;;;;;12.82;81.54;100407.69;1672325;84;21527;-70
2021/10/20 05:44:53;;;;;;;13.67;12.27;;;;;;;12.81;81.56;100411.18;1680745;84;20914;-70
2021/10/20 05:47:19;;;;;;;20.77;11.83;;;;;;;12.79;81.61;100406.48;1687832;84;21053;-70
2021/10/20 05:49:45;;;;;;;15.50;12.93;;;;;;;12.77;81.61;100406.52;1672738;84;21576;-70
2021/10/20 05:52:11;;;;;;;14.70;12.70;;;;;;;12.77;81.68;100405.67;1660917;84;21068;-70
2021/10/20 05:54:37;;;;;;;14.60;13.13;;;;;;;12.75;81.65;100407.02;1660354;85;20938;-70
2021/10/20 05:57:03;;;;;;;15.63;13.33;;;;;;;12.74;81.70;100408.35;1656084;85;20989;-71
2021/10/20 05:59:31;;;;;;;15.68;13.10;;;;;;;12.73;81.76;100405.36;1670111;84;21065;-71
2021/10/20 06:01:57;;;;;;;17.10;14.53;;;;;;;12.73;81.77;100407.50;1686509;83;21427;-71
2021/10/20 06:04:23;;;;;;;15.97;13.37;;;;;;;12.72;81.79;100398.47;1677170;84;20870;-71
2021/10/20 06:06:49;;;;;;;17.43;14.33;;;;;;;12.71;81.84;100395.47;1673590;84;20934;-71
2021/10/20 06:09:15;;;;;;;15.93;13.37;;;;;;;12.70;81.88;100398.51;1667673;85;21090;-71
2021/10/20 06:11:41;;;;;;;16.63;14.03;;;;;;;12.71;81.87;100396.31;1657573;84;20935;-71
2021/10/20 06:14:07;;;;;;;19.77;14.63;;;;;;;12.71;81.94;100396.31;1686000;84;21076;-71
2021/10/20 06:16:41;;;;;;;18.37;14.25;;;;;;;12.73;81.97;100393.23;1671067;83;21069;-71
2021/10/20 06:19:08;;;;;;;16.85;13.53;;;;;;;12.75;81.97;100395.78;1665773;84;21065;-71
2021/10/20 06:21:34;;;;;;;15.28;13.58;;;;;;;12.76;82.01;100399.63;1676618;85;21127;-71
2021/10/20 06:24:00;;;;;;;18.12;13.72;;;;;;;12.79;82.03;100397.40;1675098;84;21064;-71
2021/10/20 06:26:26;;;;;;;14.77;13.07;;;;;;;12.79;82.02;100391.77;1674450;84;20902;-71
2021/10/20 06:28:54;;;;;;;15.33;13.00;;;;;;;12.81;82.01;100391.27;1674277;84;20981;-71
2021/10/20 06:31:20;;;;;;;20.40;13.72;;;;;;;12.83;82.06;100390.78;1675330;85;21059;-71
2021/10/20 06:33:58;;;;;;;15.98;12.13;;;;;;;12.84;82.05;100385.14;1672914;84;21644;-71
2021/10/20 06:36:33;;;;;;;13.83;12.43;;;;;;;12.85;82.06;100381.20;1684208;84;21020;-71
2021/10/20 06:39:01;;;;;;;13.72;12.25;;;;;;;12.84;82.09;100379.51;1667299;84;20945;-71
2021/10/20 06:41:29;;;;;;;14.28;12.73;;;;;;;12.86;82.12;100380.31;1674748;84;20938;-71
2021/10/20 06:43:56;;;;;;;16.53;12.60;;;;;;;12.86;82.19;100379.47;1678444;85;20894;-71
2021/10/20 06:46:22;;;;;;;16.90;11.85;;;;;;;12.88;82.21;100372.48;1654678;85;20930;-71
2021/10/20 06:48:48;;;;;;;12.35;11.05;;;;;;;12.88;82.21;100370.73;1649711;85;20956;-71
2021/10/20 06:51:14;;;;;;;12.63;10.97;;;;;;;12.88;82.23;100374.62;1679280;84;20862;-71
2021/10/20 06:53:40;;;;;;;13.13;11.20;;;;;;;12.92;82.28;100371.50;1668015;84;20914;-71
2021/10/20 06:56:09;;;;;;;11.47;10.37;;;;;;;12.96;82.28;100372.27;1662760;85;20961;-71
2021/10/20 06:58:36;;;;;;;11.68;9.18;;;;;;;12.99;82.32;100366.53;1677397;85;20935;-71
2021/10/20 07:01:08;;;;;;;11.00;9.88;;;;;;;13.04;82.30;100371.11;1673680;84;20945;-71
2021/10/20 07:03:34;;;;;;;11.03;9.90;;;;;;;13.09;82.33;100362.73;1563505;83;10001077;-71
2021/10/20 07:06:00;;;;;;;10.30;9.40;;;;;;;13.16;82.41;100359.09;1710826;82;20902;-71
2021/10/20 07:08:38;;;;;;;10.50;8.80;;;;;;;13.24;82.37;100356.26;1699691;83;20949;-71
2021/10/20 07:11:04;;;;;;;13.00;10.13;;;;;;;13.32;82.39;100347.78;1692627;82;20985;-71
2021/10/20 07:13:33;;;;;;;10.68;9.58;;;;;;;13.38;82.37;100336.35;1701403;83;21513;-71
2021/10/20 07:15:59;;;;;;;11.25;10.10;;;;;;;13.45;82.41;100341.75;1700017;83;21081;-71
2021/10/20 07:18:31;;;;;;;14.70;10.23;;;;;;;13.53;82.40;100341.02;1701494;83;21057;-71
2021/10/20 07:20:56;;;;;;;11.65;9.60;;;;;;;13.59;82.40;100334.33;1700626;83;21065;-71
2021/10/20 07:23:23;;;;;;;14.43;10.73;;;;;;;13.65;82.39;100341.08;1697517;83;21029;-71
2021/10/20 07:25:48;;;;;;;12.70;10.80;;;;;;;13.69;82.37;100337.48;1704103;83;21622;-71
2021/10/20 07:28:14;;;;;;;10.03;9.23;;;;;;;13.74;82.39;100348.13;1700481;83;21480;-71
2021/10/20 07:30:41;;;;;;;11.10;10.03;;;;;;;13.78;82.41;100343.22;1700918;84;21655;-71
2021/10/20 07:33:07;;;;;;;10.43;8.70;;;;;;;13.81;82.37;100338.37;1696541;84;21049;-71
2021/10/20 07:35:34;;;;;;;10.80;9.25;;;;;;;13.84;82.36;100334.37;1552271;83;10006436;-71
2021/10/20 07:38:00;;;;;;;10.15;9.00;;;;;;;13.85;82.34;100338.22;1659480;85;21017;-71
2021/10/20 07:40:28;;;;;;;10.82;9.73;;;;;;;13.89;82.37;100333.31;1654197;84;21144;-71
2021/10/20 07:42:54;;;;;;;16.67;9.63;;;;;;;13.93;82.38;100335.36;1663559;85;21061;-71
2021/10/20 07:45:20;;;;;;;10.60;9.60;;;;;;;13.98;82.42;100331.30;1656594;84;21750;-71
2021/10/20 07:47:50;;;;;;;13.03;11.10;;;;;;;14.01;82.40;100325.55;1654027;85;21105;-71
2021/10/20 07:50:20;;;;;;;12.80;9.78;;;;;;;14.04;82.42;100333.20;1663423;86;21065;-71
2021/10/20 07:52:48;;;;;;;11.15;9.23;;;;;;;14.05;82.39;100327.11;1652148;85;20914;-71
2021/10/20 07:55:21;;;;;;;10.10;8.83;;;;;;;14.09;82.43;100331.75;1654155;85;20883;-71
2021/10/20 07:57:48;;;;;;;11.57;9.15;;;;;;;14.11;82.42;100323.45;1653672;85;20958;-71
2021/10/20 08:00:18;;;;;;;12.13;9.23;;;;;;;14.12;82.42;100327.30;1650780;85;20886;-71
2021/10/20 08:02:44;;;;;;;9.80;8.80;;;;;;;14.13;82.42;100328.98;1665902;85;20966;-71
2021/10/20 08:05:13;;;;;;;11.90;9.00;;;;;;;14.13;82.45;100321.19;1669006;85;20974;-71
2021/10/20 08:07:44;;;;;;;10.65;8.65;;;;;;;14.15;82.43;100310.28;1658068;85;21020;-71
2021/10/20 08:10:07;;;;;;;9.60;8.60;;;;;;;14.17;82.45;100314.98;1668343;85;21432;-71
2021/10/20 08:12:33;;;;;;;9.00;7.92;;;;;;;14.22;82.46;100314.36;1671662;85;21081;-71
2021/10/20 08:15:02;;;;;;;10.53;8.50;;;;;;;14.27;82.44;100305.55;1650810;85;20982;-71
2021/10/20 08:17:27;;;;;;;9.13;8.40;;;;;;;14.30;82.43;100297.64;1667953;85;20874;-71
2021/10/20 08:19:53;;;;;;;8.67;7.87;;;;;;;14.34;82.41;100296.62;1668793;84;20953;-71
2021/10/20 08:22:26;;;;;;;9.30;7.80;;;;;;;14.38;82.44;100292.55;1670769;84;20966;-71
2021/10/20 08:24:52;;;;;;;8.53;7.73;;;;;;;14.44;82.45;100289.76;1657770;85;21647;-71
2021/10/20 08:27:20;;;;;;;8.38;7.25;;;;;;;14.51;82.42;100294.28;1690206;84;20950;-71
2021/10/20 08:29:47;;;;;;;7.83;6.62;;;;;;;14.58;82.44;100284.86;1670729;85;20931;-71
2021/10/20 08:32:13;;;;;;;8.90;7.40;;;;;;;14.65;82.43;100280.72;1659446;85;20942;-71
2021/10/20 08:34:39;;;;;;;8.03;7.27;;;;;;;14.69;82.39;100280.55;1668207;85;20918;-71
2021/10/20 08:37:05;;;;;;;8.00;7.20;;;;;;;14.73;82.35;100283.44;1671372;85;20895;-71
2021/10/20 08:39:31;;;;;;;7.90;7.10;;;;;;;14.76;82.30;100280.71;1666495;84;23306;-71
2021/10/20 08:41:58;;;;;;;7.53;6.77;;;;;;;14.79;82.33;100279.30;1667016;85;20990;-71
2021/10/20 08:44:24;;;;;;;9.25;6.58;;;;;;;14.84;82.29;100274.76;1670453;84;20939;-71
2021/10/20 08:46:52;;;;;;;9.23;6.65;;;;;;;14.86;82.23;100263.83;1661367;84;20978;-71
2021/10/20 08:49:18;;;;;;;7.50;6.87;;;;;;;14.89;82.25;100270.67;1652515;85;25234;-71
2021/10/20 08:51:45;;;;;;;8.20;6.93;;;;;;;14.92;82.24;100262.75;1666422;85;20951;-71
2021/10/20 08:54:12;;;;;;;8.55;6.95;;;;;;;14.95;82.22;100265.69;1654308;85;20907;-71
2021/10/20 08:56:43;;;;;;;8.35;6.97;;;;;;;14.99;82.20;100265.95;1664943;85;20946;-71
2021/10/20 08:59:06;;;;;;;7.40;6.67;;;;;;;15.02;82.18;100254.97;1666705;85;20961;-71
2021/10/20 09:01:32;;;;;;;7.47;6.67;;;;;;;15.07;82.12;100247.82;1668265;85;20909;-71
2021/10/20 09:04:08;;;;;;;7.08;6.25;;;;;;;15.11;82.14;100246.75;1691336;84;20970;-71
2021/10/20 09:06:35;;;;;;;6.78;6.15;;;;;;;15.16;82.19;100240.91;1658678;85;20962;-71
2021/10/20 09:09:06;;;;;;;6.87;6.17;;;;;;;15.24;82.14;100254.92;1675318;84;20968;-71
2021/10/20 09:11:33;;;;;;;10.58;5.95;;;;;;;15.29;82.08;100246.46;1671946;84;21427;-71
2021/10/20 09:14:14;;;;;;;7.60;6.08;;;;;;;15.32;82.05;100242.43;1679130;83;24986;-71
2021/10/20 09:16:44;;;;;;;8.78;6.25;;;;;;;15.27;82.06;100223.53;1680116;85;20926;-71
2021/10/20 09:19:28;;;;;;;7.80;5.42;;;;;;;15.46;82.03;100241.86;1679985;85;20974;-71
2021/10/20 09:22:04;;;;;;;6.70;6.00;;;;;;;15.51;82.00;100238.15;1670340;85;20973;-71
2021/10/20 09:24:40;;;;;;;7.95;5.62;;;;;;;15.59;81.98;100240.92;1665946;85;20965;-71
2021/10/20 09:27:24;;;;;;;6.17;4.87;;;;;;;15.64;81.89;100238.93;1676926;85;20923;-71
2021/10/20 09:30:09;;;;;;;6.75;4.33;;;;;;;15.70;81.85;100235.61;1669522;84;21533;-71
2021/10/20 09:32:37;;;;;;;5.30;4.80;;;;;;;15.79;81.89;100231.30;1676547;85;20887;-71
2021/10/20 09:35:04;;;;;;;5.50;4.70;;;;;;;15.99;81.71;100225.67;1679792;85;21487;-71
2021/10/20 09:37:32;;;;;;;5.12;4.30;;;;;;;15.99;81.71;100225.67;1680042;85;36937;-71
2021/10/20 09:40:13;;;;;;;4.80;4.30;;;;;;;16.09;81.70;100216.52;1663359;84;20978;-71
2021/10/20 09:42:48;;;;;;;4.85;4.22;;;;;;;16.18;81.62;100221.30;1672735;84;20989;-71
2021/10/20 09:45:17;;;;;;;4.55;4.00;;;;;;;16.28;81.57;100221.72;1664736;85;21037;-71
2021/10/20 09:47:44;;;;;;;4.90;4.40;;;;;;;16.34;81.46;100209.25;1646389;85;20938;-71
2021/10/20 09:50:11;;;;;;;5.00;4.50;;;;;;;16.42;81.41;100204.52;1653517;85;21676;-71
2021/10/20 09:52:52;;;;;;;4.67;3.90;;;;;;;16.44;81.38;100203.14;1679193;83;20895;-71
2021/10/20 09:55:29;;;;;;;9.20;4.17;;;;;;;16.47;81.25;100205.16;1674951;85;20906;-71
2021/10/20 09:58:06;;;;;;;6.53;3.80;;;;;;;16.51;81.13;100201.94;1670396;85;20886;-71
2021/10/20 10:00:35;;;;;;;3.92;3.60;;;;;;;16.53;81.10;100198.80;1673925;83;20925;-71
2021/10/20 10:03:03;;;;;;;3.85;3.55;;;;;;;16.52;80.92;100195.34;1677133;84;20903;-71
2021/10/20 10:05:31;;;;;;;4.30;3.75;;;;;;;16.53;80.94;100197.03;1658116;85;20930;-71
2021/10/20 10:07:58;;;;;;;4.00;3.05;;;;;;;16.54;80.84;100200.03;1663932;85;20990;-71
2021/10/20 10:10:24;;;;;;;4.37;3.05;;;;;;;16.58;80.84;100196.82;1652443;85;25140;-71
2021/10/20 10:12:57;;;;;;;3.30;2.83;;;;;;;16.62;80.79;100188.38;1654736;84;423206;-71
2021/10/20 10:15:29;;;;;;;3.20;2.90;;;;;;;16.62;80.62;100187.08;1667483;85;20950;-71
2021/10/20 10:17:56;;;;;;;3.55;3.05;;;;;;;16.60;80.47;100185.84;1669491;84;20930;-71
2021/10/20 10:20:29;;;;;;;2.95;2.75;;;;;;;16.59;80.35;100175.02;1678722;83;26228;-71
2021/10/20 10:23:07;;;;;;;3.40;2.77;;;;;;;16.63;80.37;100171.80;1670265;85;20963;-71
2021/10/20 10:25:40;;;;;;;3.35;3.05;;;;;;;16.72;80.39;100161.77;1666762;85;20982;-71
2021/10/20 10:28:20;;;;;;;6.75;2.80;;;;;;;16.83;80.30;100159.94;1663033;85;20998;-71
2021/10/20 10:30:53;;;;;;;4.55;2.95;;;;;;;16.87;79.93;100147.11;1661419;85;20972;-71
2021/10/20 10:33:25;;;;;;;3.08;2.72;;;;;;;16.92;80.03;100154.27;1670416;84;20899;-71
2021/10/20 10:36:16;;;;;;;5.00;2.90;;;;;;;16.97;79.93;100162.72;1672838;84;20938;-71
2021/10/20 10:38:49;;;;;;;3.62;2.70;;;;;;;17.01;79.81;100147.28;1671253;85;20898;-71
2021/10/20 10:41:29;;;;;;;3.10;2.50;;;;;;;17.08;79.80;100135.61;1663088;85;20971;-71
2021/10/20 10:44:08;;;;;;;5.97;3.00;;;;;;;17.13;79.55;100127.08;1673216;85;20915;-71
2021/10/20 10:47:05;;;;;;;2.67;2.47;;;;;;;17.15;79.54;100125.23;1672561;85;21462;-71
2021/10/20 10:49:37;;;;;;;3.10;2.80;;;;;;;17.17;79.38;100134.27;1651732;85;21156;-71
2021/10/20 10:52:23;;;;;;;3.20;2.90;;;;;;;17.17;79.33;100114.67;1603846;87;21117;-71
2021/10/20 10:55:07;;;;;;;3.77;2.83;;;;;;;17.15;79.20;100106.09;1621524;88;20930;-71
2021/10/20 10:58:13;;;;;;;2.30;2.10;;;;;;;17.15;79.11;100102.17;1624182;87;20959;-71
2021/10/20 11:00:48;;;;;;;2.90;2.60;;;;;;;17.14;78.99;100114.39;1613031;88;21569;-71
2021/10/20 11:03:22;;;;;;;3.20;2.90;;;;;;;17.16;78.96;100104.68;1612276;88;21025;-71
2021/10/20 11:05:57;;;;;;;4.05;3.08;;;;;;;17.24;78.97;100102.13;1611563;87;21081;-71
2021/10/20 11:08:24;;;;;;;3.50;2.75;;;;;;;17.31;78.88;100091.28;1671625;85;21536;-71
2021/10/20 11:10:51;;;;;;;3.83;3.02;;;;;;;17.36;78.70;100074.91;1671511;84;21144;-71
2021/10/20 11:13:18;;;;;;;4.03;2.80;;;;;;;17.40;78.58;100075.13;1664574;85;21064;-71
2021/10/20 11:15:45;;;;;;;;;;;;;;;17.43;78.49;100074.97;1674815;85;21557;-71
2021/10/20 11:18:15;;;;;;;3.27;2.62;;;;;;;17.45;77.78;100074.89;1663587;85;20185;-71
2021/10/20 11:20:43;;;;;;;;;;;;;;;17.48;78.29;100079.95;1659278;84;21145;-71
2021/10/20 11:23:17;;;;;;;3.22;2.77;;;;;;;17.54;77.85;100065.25;1656223;85;20187;-71